Time;durP1;ratioP1;P1;durP2;ratioP2;P2;SDS_P1;SDS_P2;PMS_P1;PMS_P2;Temp;Humidity;BMP_temperature;BMP_pressure;BME280_temperature;BME280_humidity;BME280_pressure;Samples;Min_cycle;Max_cycle;Signal;HPM_P1;HPM_P2
2022/07/16 00:02:26;;;;;;;2.35;1.58;;;;;;;;;;5065986;28;20421;-72
2022/07/16 00:04:54;;;;;;;4.03;2.30;;;;;;;;;;5061552;28;20033;-73
2022/07/16 00:07:31;;;;;;;3.58;2.10;;;;;;;;;;5067713;28;20566;-72
2022/07/16 00:10:00;;;;;;;2.47;1.98;;;;;;;;;;5049424;28;20026;-72
2022/07/16 00:12:37;;;;;;;4.32;1.90;;;;;;;;;;5049113;28;20135;-73
2022/07/16 00:15:06;;;;;;;2.20;2.10;;;;;;;;;;5048665;28;20032;-71
2022/07/16 00:17:35;;;;;;;3.15;1.88;;;;;;;;;;5048250;28;20036;-72
2022/07/16 00:20:04;;;;;;;3.75;2.00;;;;;;;;;;5048921;28;20017;-72
2022/07/16 00:22:41;;;;;;;3.20;1.83;;;;;;;;;;5066544;28;20425;-72
2022/07/16 00:25:10;;;;;;;4.30;2.15;;;;;;;;;;5049438;28;20047;-72
2022/07/16 00:27:46;;;;;;;3.28;2.10;;;;;;;;;;5052184;28;20135;-72
2022/07/16 00:30:23;;;;;;;3.30;2.10;;;;;;;;;;5106204;27;20124;-72
2022/07/16 00:33:00;;;;;;;6.07;2.05;;;;;;;;;;5065802;28;20615;-72
2022/07/16 00:35:29;;;;;;;4.25;2.15;;;;;;;;;;5060084;28;20033;-72
2022/07/16 00:37:57;;;;;;;3.47;1.88;;;;;;;;;;5047910;28;20028;-72
2022/07/16 00:40:34;;;;;;;2.38;2.17;;;;;;;;;;5107914;27;20137;-72
2022/07/16 00:43:03;;;;;;;3.20;2.30;;;;;;;;;;5089447;28;20025;-72
2022/07/16 00:45:32;;;;;;;2.70;2.17;;;;;;;;;;5088552;28;20020;-72
2022/07/16 00:48:01;;;;;;;6.93;1.98;;;;;;;;;;5088753;28;20017;-72
2022/07/16 00:50:29;;;;;;;3.28;1.88;;;;;;;;;;5088842;28;20030;-72
2022/07/16 00:52:59;;;;;;;5.18;2.10;;;;;;;;;;5088409;28;20031;-72
2022/07/16 00:55:36;;;;;;;4.50;2.50;;;;;;;;;;5107908;27;20414;-72
2022/07/16 00:58:05;;;;;;;2.75;2.08;;;;;;;;;;5089587;28;20028;-72
2022/07/16 01:00:40;;;;;;;5.45;2.30;;;;;;;;;;5602481;23;15081813;-72
2022/07/16 01:03:09;;;;;;;4.30;2.15;;;;;;;;;;6253586;22;20091;-72
2022/07/16 01:05:38;;;;;;;5.45;2.13;;;;;;;;;;6253177;22;20414;-72
2022/07/16 01:08:07;;;;;;;5.20;2.35;;;;;;;;;;6253697;22;20087;-72
2022/07/16 01:10:36;;;;;;;8.02;2.30;;;;;;;;;;6253183;22;20075;-72
2022/07/16 01:13:16;;;;;;;2.65;2.42;;;;;;;;;;5109796;27;21064;-72
2022/07/16 01:15:53;;;;;;;2.30;2.10;;;;;;;;;;5071271;28;20387;-72
2022/07/16 01:18:22;;;;;;;3.80;2.05;;;;;;;;;;5069978;28;20493;-72
2022/07/16 01:20:59;;;;;;;4.22;2.20;;;;;;;;;;5066056;28;20161;-72
2022/07/16 01:23:28;;;;;;;3.20;2.10;;;;;;;;;;5060187;28;20511;-72
2022/07/16 01:25:57;;;;;;;3.58;2.40;;;;;;;;;;5047937;28;20500;-72
2022/07/16 01:28:25;;;;;;;4.72;2.35;;;;;;;;;;5050180;28;20490;-72
2022/07/16 01:30:54;;;;;;;4.20;2.20;;;;;;;;;;5053034;28;20041;-72
2022/07/16 01:33:25;;;;;;;3.88;1.90;;;;;;;;;;5050172;28;20478;-72
2022/07/16 01:35:53;;;;;;;;;;;;;;;;;;5050771;28;20045;-72
2022/07/16 01:38:22;;;;;;;3.67;2.28;;;;;;;;;;5050156;28;19911;-72
2022/07/16 01:40:51;;;;;;;7.30;2.35;;;;;;;;;;5046612;28;20041;-72
2022/07/16 01:43:21;;;;;;;2.92;2.03;;;;;;;;;;5051382;28;20026;-72
2022/07/16 01:45:50;;;;;;;4.47;2.45;;;;;;;;;;5052247;28;20060;-72
2022/07/16 01:48:20;;;;;;;4.07;2.35;;;;;;;;;;5049971;28;20026;-72
2022/07/16 01:50:57;;;;;;;2.58;2.30;;;;;;;;;;5106192;27;20908;-73
2022/07/16 01:53:28;;;;;;;7.50;2.55;;;;;;;;;;5106399;28;20521;-72
2022/07/16 01:55:57;;;;;;;9.50;2.80;;;;;;;;;;5106522;28;20505;-72
2022/07/16 01:58:26;;;;;;;3.55;2.25;;;;;;;;;;5108556;28;20035;-72
2022/07/16 02:01:05;;;;;;;3.53;2.42;;;;;;;;;;5068877;28;20387;-72
2022/07/16 02:03:34;;;;;;;3.38;2.40;;;;;;;;;;5051449;28;20021;-72
2022/07/16 02:06:03;;;;;;;3.63;2.28;;;;;;;;;;5050490;28;20400;-72
2022/07/16 02:08:31;;;;;;;5.03;2.40;;;;;;;;;;5049982;28;20027;-72
2022/07/16 02:11:00;;;;;;;4.45;2.20;;;;;;;;;;5047839;28;20032;-72
2022/07/16 02:13:29;;;;;;;3.85;2.22;;;;;;;;;;5049541;28;20029;-72
2022/07/16 02:16:05;;;;;;;5.07;2.38;;;;;;;;;;5109842;27;20136;-72
2022/07/16 02:18:35;;;;;;;3.90;2.63;;;;;;;;;;5106384;28;20016;-72
2022/07/16 02:21:04;;;;;;;3.55;2.55;;;;;;;;;;5106125;28;20407;-72
2022/07/16 02:23:32;;;;;;;3.40;2.38;;;;;;;;;;5106407;28;20034;-72
2022/07/16 02:26:01;;;;;;;6.93;2.72;;;;;;;;;;5106277;28;20499;-71
2022/07/16 02:28:30;;;;;;;5.57;2.80;;;;;;;;;;5108166;28;20046;-72
2022/07/16 02:30:58;;;;;;;6.85;3.20;;;;;;;;;;5107930;28;20024;-72
2022/07/16 02:33:27;;;;;;;4.07;2.30;;;;;;;;;;5106136;28;20370;-72
2022/07/16 02:35:56;;;;;;;9.35;3.00;;;;;;;;;;5106030;28;20036;-72
2022/07/16 02:38:32;;;;;;;7.30;2.42;;;;;;;;;;5106346;27;20155;-72
2022/07/16 02:41:11;;;;;;;6.45;2.47;;;;;;;;;;5106437;27;20992;-72
2022/07/16 02:43:40;;;;;;;4.15;2.92;;;;;;;;;;5106773;28;20024;-72
2022/07/16 02:46:08;;;;;;;6.07;2.47;;;;;;;;;;5109463;28;20040;-72
2022/07/16 02:48:37;;;;;;;4.68;2.58;;;;;;;;;;5107732;28;20028;-72
2022/07/16 02:51:06;;;;;;;4.30;2.60;;;;;;;;;;5105998;28;20024;-72
2022/07/16 02:53:34;;;;;;;3.80;2.50;;;;;;;;;;5106250;28;20020;-72
2022/07/16 02:56:11;;;;;;;3.28;2.30;;;;;;;;;;5066234;28;20131;-72
2022/07/16 02:58:40;;;;;;;3.35;2.58;;;;;;;;;;5066701;28;20025;-71
2022/07/16 03:01:17;;;;;;;5.60;2.72;;;;;;;;;;5109242;27;20178;-72
2022/07/16 03:03:45;;;;;;;5.50;2.53;;;;;;;;;;5106124;28;20039;-72
2022/07/16 03:06:14;;;;;;;5.22;2.50;;;;;;;;;;5089995;28;20493;-71
2022/07/16 03:08:53;;;;;;;5.45;2.65;;;;;;;;;;5066019;28;20387;-72
2022/07/16 03:11:21;;;;;;;3.05;2.42;;;;;;;;;;5060808;28;20021;-72
2022/07/16 03:13:50;;;;;;;7.07;2.22;;;;;;;;;;5046564;28;20021;-72
2022/07/16 03:16:19;;;;;;;5.05;2.45;;;;;;;;;;5051933;28;20025;-72
2022/07/16 03:18:48;;;;;;;5.38;2.70;;;;;;;;;;5052551;28;20035;-71
2022/07/16 03:21:24;;;;;;;5.75;2.60;;;;;;;;;;5066155;28;20134;-72
2022/07/16 03:23:53;;;;;;;4.90;2.58;;;;;;;;;;5056844;28;20029;-71
2022/07/16 03:26:30;;;;;;;5.55;2.67;;;;;;;;;;5106879;27;20571;-71
2022/07/16 03:28:58;;;;;;;4.38;2.90;;;;;;;;;;5102214;28;20023;-71
2022/07/16 03:31:27;;;;;;;5.75;2.50;;;;;;;;;;5090698;28;20043;-72
2022/07/16 03:33:56;;;;;;;7.22;2.85;;;;;;;;;;5093893;28;20020;-72
2022/07/16 03:36:26;;;;;;;5.13;2.67;;;;;;;;;;5090231;28;20021;-71
2022/07/16 03:41:32;;;;;;;7.45;2.70;;;;;;;;;;5079495;28;20020;-72
2022/07/16 03:44:02;;;;;;;5.85;2.70;;;;;;;;;;5068252;28;20111;-72
2022/07/16 03:46:39;;;;;;;4.82;2.88;;;;;;;;;;5107537;27;20400;-72
2022/07/16 03:49:17;;;;;;;4.22;2.70;;;;;;;;;;5069232;28;20448;-72
2022/07/16 03:51:46;;;;;;;6.97;3.10;;;;;;;;;;5050060;28;20036;-72
2022/07/16 03:54:22;;;;;;;5.03;2.60;;;;;;;;;;5086137;28;20130;-72
2022/07/16 03:56:51;;;;;;;4.93;2.83;;;;;;;;;;5076828;28;20029;-72
2022/07/16 03:59:33;;;;;;;3.38;2.80;;;;;;;;;;5065867;28;20764;-72
2022/07/16 04:02:01;;;;;;;4.93;2.60;;;;;;;;;;5062031;28;20018;-72
2022/07/16 04:04:30;;;;;;;5.18;2.60;;;;;;;;;;5049364;28;20021;-72
2022/07/16 04:07:07;;;;;;;5.80;2.88;;;;;;;;;;5089564;28;20152;-72
2022/07/16 04:09:36;;;;;;;4.70;3.22;;;;;;;;;;5085597;28;20036;-72
2022/07/16 04:12:05;;;;;;;6.38;2.92;;;;;;;;;;5085871;28;20477;-71
2022/07/16 04:14:33;;;;;;;6.25;3.13;;;;;;;;;;5086037;28;20025;-71
2022/07/16 04:17:02;;;;;;;8.32;2.83;;;;;;;;;;5085966;28;20039;-72
2022/07/16 04:19:31;;;;;;;5.53;2.78;;;;;;;;;;5088168;28;20034;-72
2022/07/16 04:22:00;;;;;;;9.05;2.90;;;;;;;;;;5087971;28;20032;-72
2022/07/16 04:24:28;;;;;;;5.93;2.55;;;;;;;;;;5085271;28;20036;-72
2022/07/16 04:27:05;;;;;;;6.95;2.92;;;;;;;;;;5065827;28;20131;-72
2022/07/16 04:29:34;;;;;;;5.47;3.28;;;;;;;;;;5059555;28;20405;-71
2022/07/16 04:32:03;;;;;;;5.25;3.00;;;;;;;;;;5048452;28;20032;-71
2022/07/16 04:34:31;;;;;;;7.55;2.72;;;;;;;;;;5049713;28;20033;-72
2022/07/16 04:37:10;;;;;;;10.25;2.90;;;;;;;;;;5069220;28;20379;-72
2022/07/16 04:39:39;;;;;;;5.72;2.72;;;;;;;;;;5049941;28;20033;-72
2022/07/16 04:42:08;;;;;;;5.25;3.03;;;;;;;;;;5049241;28;20048;-72
2022/07/16 04:44:36;;;;;;;6.03;2.72;;;;;;;;;;5050276;28;20037;-72
2022/07/16 04:47:05;;;;;;;7.72;3.00;;;;;;;;;;5048817;28;20026;-72
2022/07/16 04:49:34;;;;;;;3.78;3.00;;;;;;;;;;5048724;28;20035;-72
2022/07/16 04:52:03;;;;;;;3.92;2.60;;;;;;;;;;5051796;28;20036;-71
2022/07/16 04:54:32;;;;;;;5.90;3.08;;;;;;;;;;5049742;28;20422;-72
2022/07/16 04:57:00;;;;;;;8.40;2.90;;;;;;;;;;5050074;28;20047;-72
2022/07/16 04:59:29;;;;;;;5.20;3.08;;;;;;;;;;5049953;28;20029;-72
2022/07/16 05:02:56;;;;;;;5.97;2.70;;;;;;;;;;5047378;28;20410;-72
2022/07/16 05:04:56;;;;;;;4.93;3.10;;;;;;;;;;5126983;27;20615;-71
2022/07/16 05:07:34;;;;;;;4.72;3.20;;;;;;;;;;5087746;27;20110;-72
2022/07/16 05:10:11;;;;;;;6.43;3.35;;;;;;;;;;5089866;28;20381;-72
2022/07/16 05:12:49;;;;;;;7.57;2.70;;;;;;;;;;5052165;28;20135;-72
2022/07/16 05:15:17;;;;;;;10.85;3.05;;;;;;;;;;5050085;28;20040;-71
2022/07/16 05:17:46;;;;;;;6.50;3.10;;;;;;;;;;5049988;28;20018;-72
2022/07/16 05:20:26;;;;;;;4.03;2.80;;;;;;;;;;5106426;27;20392;-71
2022/07/16 05:22:55;;;;;;;5.82;3.33;;;;;;;;;;5107519;28;20401;-72
2022/07/16 05:25:23;;;;;;;3.90;2.80;;;;;;;;;;5108656;28;20034;-72
2022/07/16 05:27:52;;;;;;;6.55;3.10;;;;;;;;;;5107496;28;20038;-72
2022/07/16 05:30:21;;;;;;;5.05;2.75;;;;;;;;;;5106044;28;20020;-72
2022/07/16 05:32:50;;;;;;;7.22;3.15;;;;;;;;;;5106278;28;20020;-72
2022/07/16 05:35:19;;;;;;;5.18;3.65;;;;;;;;;;5106315;28;20028;-72
2022/07/16 05:37:47;;;;;;;6.85;3.40;;;;;;;;;;5106002;28;20016;-72
2022/07/16 05:40:16;;;;;;;4.07;3.13;;;;;;;;;;5109074;28;20054;-72
2022/07/16 05:42:45;;;;;;;5.15;3.15;;;;;;;;;;5108445;28;20031;-72
2022/07/16 05:45:13;;;;;;;4.53;2.83;;;;;;;;;;5105881;28;20522;-72
2022/07/16 05:47:52;;;;;;;6.72;3.08;;;;;;;;;;5086267;27;20393;-72
2022/07/16 05:50:21;;;;;;;8.98;3.13;;;;;;;;;;5081351;28;20031;-72
2022/07/16 05:52:50;;;;;;;6.25;2.90;;;;;;;;;;5066644;28;20023;-72
2022/07/16 05:55:18;;;;;;;11.10;3.08;;;;;;;;;;5072400;28;20035;-72
2022/07/16 05:57:47;;;;;;;6.63;2.92;;;;;;;;;;5072146;28;20031;-72
2022/07/16 06:00:24;;;;;;;5.57;2.75;;;;;;;;;;5065725;28;20200;-72
2022/07/16 06:02:53;;;;;;;10.65;3.00;;;;;;;;;;5057010;28;20021;-72
2022/07/16 06:05:22;;;;;;;9.07;3.53;;;;;;;;;;5049918;28;20055;-72
2022/07/16 06:07:59;;;;;;;6.00;3.42;;;;;;;;;;5106492;27;20443;-72
2022/07/16 06:10:28;;;;;;;8.23;3.50;;;;;;;;;;5108591;28;20030;-72
2022/07/16 06:12:57;;;;;;;9.25;3.45;;;;;;;;;;5107652;28;20034;-72
2022/07/16 06:15:26;;;;;;;11.15;3.35;;;;;;;;;;5106345;28;20492;-73
2022/07/16 06:17:55;;;;;;;8.38;3.28;;;;;;;;;;5106327;28;20034;-72
2022/07/16 06:20:23;;;;;;;6.10;3.22;;;;;;;;;;5105859;28;20030;-72
2022/07/16 06:22:54;;;;;;;6.22;3.33;;;;;;;;;;5106361;28;20027;-72
2022/07/16 06:25:23;;;;;;;4.97;3.40;;;;;;;;;;5108450;28;20016;-72
2022/07/16 06:27:52;;;;;;;6.00;3.00;;;;;;;;;;5107021;28;20052;-72
2022/07/16 06:30:21;;;;;;;6.53;3.40;;;;;;;;;;5105823;28;20024;-72
2022/07/16 06:32:49;;;;;;;5.70;3.30;;;;;;;;;;5105954;28;20027;-72
2022/07/16 06:35:18;;;;;;;4.93;3.22;;;;;;;;;;5105820;28;20030;-73
2022/07/16 06:37:47;;;;;;;4.32;2.97;;;;;;;;;;5090345;28;20038;-72
2022/07/16 06:40:15;;;;;;;4.38;2.83;;;;;;;;;;5109325;28;20032;-72
2022/07/16 06:42:52;;;;;;;4.13;3.00;;;;;;;;;;5051970;28;20162;-73
2022/07/16 06:45:43;;;;;;;3.28;2.97;;;;;;;;;;5070361;27;20457;-72
2022/07/16 06:48:20;;;;;;;7.10;3.08;;;;;;;;;;5086273;27;20427;-72
2022/07/16 06:50:49;;;;;;;6.88;3.10;;;;;;;;;;5085686;28;20030;-72
2022/07/16 06:53:18;;;;;;;10.30;3.28;;;;;;;;;;5086113;28;20044;-72
2022/07/16 06:55:46;;;;;;;8.57;3.10;;;;;;;;;;5070679;28;20028;-72
2022/07/16 06:58:25;;;;;;;5.30;3.33;;;;;;;;;;5108769;27;20388;-72
2022/07/16 07:00:54;;;;;;;7.05;3.20;;;;;;;;;;5089580;28;20029;-72
2022/07/16 07:03:23;;;;;;;3.88;3.08;;;;;;;;;;5090152;28;20024;-72
2022/07/16 07:05:51;;;;;;;5.00;3.17;;;;;;;;;;5090133;28;20031;-72
2022/07/16 07:08:20;;;;;;;4.72;2.90;;;;;;;;;;5090027;28;20384;-72
2022/07/16 07:10:49;;;;;;;5.30;3.08;;;;;;;;;;5090108;28;20403;-72
2022/07/16 07:13:25;;;;;;;5.20;2.92;;;;;;;;;;5108992;27;20653;-73
2022/07/16 07:15:54;;;;;;;4.05;3.30;;;;;;;;;;5089624;28;20039;-72
2022/07/16 07:18:31;;;;;;;6.13;3.00;;;;;;;;;;5086019;27;20179;-73
2022/07/16 07:21:00;;;;;;;4.85;3.30;;;;;;;;;;5085964;28;20493;-72
2022/07/16 07:23:29;;;;;;;6.00;3.00;;;;;;;;;;5086255;28;20028;-73
2022/07/16 07:25:58;;;;;;;11.05;3.03;;;;;;;;;;5086434;28;20027;-73
2022/07/16 07:28:28;;;;;;;4.90;3.10;;;;;;;;;;5088529;28;20020;-72
2022/07/16 07:30:57;;;;;;;9.43;3.03;;;;;;;;;;5089493;28;20036;-72
2022/07/16 07:33:25;;;;;;;3.85;2.60;;;;;;;;;;5085641;28;20037;-72
2022/07/16 07:35:55;;;;;;;5.90;3.30;;;;;;;;;;5085872;28;20040;-72
2022/07/16 07:38:34;;;;;;;7.68;2.80;;;;;;;;;;5065949;28;20394;-73
2022/07/16 07:41:03;;;;;;;7.43;2.95;;;;;;;;;;5065858;28;20021;-72
2022/07/16 07:43:32;;;;;;;4.00;2.70;;;;;;;;;;5067927;28;20025;-72
2022/07/16 07:46:00;;;;;;;7.10;2.60;;;;;;;;;;5067675;28;20039;-73
2022/07/16 07:48:29;;;;;;;5.43;3.10;;;;;;;;;;5065167;28;20392;-72
2022/07/16 07:50:58;;;;;;;7.43;3.05;;;;;;;;;;5065536;28;20029;-73
2022/07/16 07:53:27;;;;;;;9.50;2.90;;;;;;;;;;5065583;28;20021;-72
2022/07/16 07:55:55;;;;;;;7.18;2.55;;;;;;;;;;5065945;28;20026;-72
2022/07/16 07:58:35;;;;;;;5.28;2.58;;;;;;;;;;5108189;27;20384;-73
2022/07/16 08:01:12;;;;;;;5.80;2.40;;;;;;;;;;5109818;27;20441;-73
2022/07/16 08:03:50;;;;;;;6.75;2.80;;;;;;;;;;5092389;27;20435;-72
2022/07/16 08:06:19;;;;;;;8.75;3.10;;;;;;;;;;5090240;28;20034;-72
2022/07/16 08:08:48;;;;;;;4.53;2.60;;;;;;;;;;5090233;28;20020;-72
2022/07/16 08:11:17;;;;;;;8.02;2.55;;;;;;;;;;5090413;28;20024;-72
2022/07/16 08:13:46;;;;;;;6.72;2.85;;;;;;;;;;5090294;28;20012;-73
2022/07/16 08:16:14;;;;;;;5.15;2.92;;;;;;;;;;5085028;28;20039;-72
2022/07/16 08:18:43;;;;;;;5.47;2.95;;;;;;;;;;5091525;28;20032;-72
2022/07/16 08:21:12;;;;;;;6.75;3.00;;;;;;;;;;5089858;28;20036;-72
2022/07/16 08:26:36;;;;;;;8.73;2.67;;;;;;;;;;5106422;27;20426;-72
2022/07/16 08:29:13;;;;;;;10.73;3.00;;;;;;;;;;5086286;27;20152;-72
2022/07/16 08:31:42;;;;;;;8.10;2.85;;;;;;;;;;5086293;28;20029;-73
2022/07/16 08:34:22;;;;;;;5.22;2.63;;;;;;;;;;5069116;28;20138;-72
2022/07/16 08:37:00;;;;;;;4.22;2.50;;;;;;;;;;5069252;28;20453;-73
2022/07/16 08:39:28;;;;;;;3.95;2.42;;;;;;;;;;5051854;28;20033;-72
2022/07/16 08:41:57;;;;;;;5.93;2.65;;;;;;;;;;5050325;28;20493;-72
2022/07/16 08:44:26;;;;;;;8.07;3.20;;;;;;;;;;5050794;28;20043;-72
2022/07/16 08:46:55;;;;;;;6.20;3.03;;;;;;;;;;5046969;28;20026;-72
2022/07/16 08:49:24;;;;;;;3.13;2.38;;;;;;;;;;5051251;28;20025;-72
2022/07/16 08:51:57;;;;;;;5.38;2.80;;;;;;;;;;5051309;28;20033;-73
2022/07/16 08:54:37;;;;;;;7.03;2.85;;;;;;;;;;5066093;28;20395;-72
2022/07/16 08:57:15;;;;;;;6.85;2.65;;;;;;;;;;5066249;28;20433;-72
2022/07/16 08:59:53;;;;;;;5.82;2.60;;;;;;;;;;5065532;28;20387;-72
2022/07/16 09:02:30;;;;;;;5.80;2.50;;;;;;;;;;5106230;27;20780;-73
2022/07/16 09:05:00;;;;;;;4.82;2.80;;;;;;;;;;5106388;28;20027;-71
2022/07/16 09:07:42;;;;;;;3.97;2.38;;;;;;;;;;5086791;27;20395;-72
2022/07/16 09:10:11;;;;;;;4.60;2.42;;;;;;;;;;5069144;28;20035;-72
2022/07/16 09:12:42;;;;;;;6.03;2.60;;;;;;;;;;5068925;28;20037;-72
2022/07/16 09:15:29;;;;;;;3.55;2.47;;;;;;;;;;5068582;28;20029;-72
2022/07/16 09:18:09;;;;;;;4.15;2.30;;;;;;;;;;5086069;27;20124;-71
2022/07/16 09:20:46;;;;;;;3.53;2.28;;;;;;;;;;5127185;27;20877;-70
2022/07/16 09:23:30;;;;;;;4.30;2.22;;;;;;;;;;5086027;28;20389;-71
2022/07/16 09:26:09;;;;;;;5.40;2.15;;;;;;;;;;5086573;28;20341;-71
2022/07/16 09:28:43;;;;;;;5.95;2.25;;;;;;;;;;5069190;28;20029;-71
2022/07/16 09:31:12;;;;;;;4.60;2.20;;;;;;;;;;5089051;28;20036;-71
2022/07/16 09:33:41;;;;;;;3.30;2.20;;;;;;;;;;5085589;28;20036;-70
2022/07/16 09:36:11;;;;;;;4.03;2.10;;;;;;;;;;5085934;28;20031;-70
2022/07/16 09:38:53;;;;;;;4.10;2.40;;;;;;;;;;5086288;27;20910;-71
2022/07/16 09:41:40;;;;;;;5.78;2.00;;;;;;;;;;5065993;28;20403;-71
2022/07/16 09:44:18;;;;;;;3.15;2.20;;;;;;;;;;5065624;28;20400;-70
2022/07/16 09:46:57;;;;;;;4.78;2.00;;;;;;;;;;5050269;28;20521;-70
2022/07/16 09:49:36;;;;;;;4.43;2.10;;;;;;;;;;5087637;27;20382;-71
2022/07/16 09:52:06;;;;;;;3.25;1.90;;;;;;;;;;5069300;28;20041;-70
2022/07/16 09:54:43;;;;;;;4.88;2.13;;;;;;;;;;5089821;27;20786;-70
2022/07/16 09:57:21;;;;;;;3.28;1.75;;;;;;;;;;5065655;28;20161;-70
2022/07/16 09:59:50;;;;;;;2.90;1.88;;;;;;;;;;5057434;28;20033;-70
2022/07/16 10:02:27;;;;;;;2.67;1.80;;;;;;;;;;5066053;28;20681;-71
2022/07/16 10:04:56;;;;;;;4.70;1.73;;;;;;;;;;5062321;28;20026;-71
2022/07/16 10:07:24;;;;;;;7.45;2.17;;;;;;;;;;5051024;28;20029;-71
2022/07/16 10:09:53;;;;;;;2.38;1.80;;;;;;;;;;5051144;28;20055;-71
2022/07/16 10:12:22;;;;;;;4.95;1.98;;;;;;;;;;5050019;28;20025;-71
2022/07/16 10:14:53;;;;;;;2.17;1.92;;;;;;;;;;5050614;28;20026;-70
2022/07/16 10:17:39;;;;;;;3.17;1.98;;;;;;;;;;5106418;27;20417;-71
2022/07/16 10:20:18;;;;;;;2.08;1.70;;;;;;;;;;5106399;27;20421;-70
2022/07/16 10:22:48;;;;;;;3.65;1.60;;;;;;;;;;5090681;28;20024;-71
2022/07/16 10:25:26;;;;;;;2.97;1.75;;;;;;;;;;5109032;27;20414;-71
2022/07/16 10:28:03;;;;;;;2.08;1.60;;;;;;;;;;5089530;27;20386;-71
2022/07/16 10:30:32;;;;;;;4.43;1.65;;;;;;;;;;5071693;28;20028;-71
2022/07/16 10:33:02;;;;;;;9.88;1.73;;;;;;;;;;5070256;28;20031;-71
2022/07/16 10:35:42;;;;;;;2.38;1.52;;;;;;;;;;5106275;27;20421;-71
2022/07/16 10:38:11;;;;;;;4.78;1.50;;;;;;;;;;5102167;28;20016;-71
2022/07/16 10:41:05;;;;;;;5.80;1.63;;;;;;;;;;5106116;27;20125;-70
2022/07/16 10:43:43;;;;;;;3.65;1.60;;;;;;;;;;5066866;28;20423;-70
2022/07/16 10:46:26;;;;;;;5.18;1.65;;;;;;;;;;5109162;27;20380;-71
2022/07/16 10:49:08;;;;;;;2.47;1.60;;;;;;;;;;5069162;28;20383;-71
2022/07/16 10:51:54;;;;;;;2.65;1.52;;;;;;;;;;5051157;28;20021;-71
2022/07/16 10:54:33;;;;;;;2.20;1.23;;;;;;;;;;5106253;27;20795;-71
2022/07/16 10:57:03;;;;;;;1.48;1.30;;;;;;;;;;5106263;28;20031;-71
2022/07/16 10:59:43;;;;;;;2.42;1.42;;;;;;;;;;5065924;28;20386;-71
2022/07/16 11:02:11;;;;;;;;;;;;;;;;;;5062231;28;20017;-71
2022/07/16 11:04:50;;;;;;;2.05;1.45;;;;;;;;;;5066328;28;20390;-71
2022/07/16 11:07:20;;;;;;;4.80;1.02;;;;;;;;;;5069229;28;20033;-71
2022/07/16 11:10:00;;;;;;;5.03;1.23;;;;;;;;;;5068923;28;20383;-70
2022/07/16 11:12:40;;;;;;;2.35;1.55;;;;;;;;;;5090958;27;20393;-70
2022/07/16 11:15:12;;;;;;;1.33;1.08;;;;;;;;;;5090222;28;20043;-71
2022/07/16 11:17:41;;;;;;;2.15;1.05;;;;;;;;;;5090117;28;20028;-70
2022/07/16 11:20:18;;;;;;;4.18;1.55;;;;;;;;;;5066113;28;20157;-71
2022/07/16 11:23:04;;;;;;;2.03;1.25;;;;;;;;;;5086322;27;20387;-70
2022/07/16 11:25:33;;;;;;;5.30;1.42;;;;;;;;;;5087812;28;20020;-70
2022/07/16 11:28:02;;;;;;;2.15;1.35;;;;;;;;;;5087920;28;20028;-70
2022/07/16 11:30:41;;;;;;;2.40;1.63;;;;;;;;;;5087085;27;20848;-70
2022/07/16 11:33:10;;;;;;;1.20;1.02;;;;;;;;;;5074888;28;20031;-70
2022/07/16 11:35:39;;;;;;;2.40;1.30;;;;;;;;;;5070399;28;20021;-71
2022/07/16 11:38:07;;;;;;;4.57;1.20;;;;;;;;;;5068574;28;20035;-71
2022/07/16 11:40:37;;;;;;;5.63;1.40;;;;;;;;;;5068068;28;20025;-70
2022/07/16 11:43:14;;;;;;;3.65;1.42;;;;;;;;;;5110094;27;20388;-70
2022/07/16 11:45:44;;;;;;;5.65;1.45;;;;;;;;;;5108222;28;20058;-71
2022/07/16 11:48:13;;;;;;;1.73;1.40;;;;;;;;;;5106709;28;20036;-71
2022/07/16 11:50:53;;;;;;;3.70;1.25;;;;;;;;;;5106503;27;20422;-71
2022/07/16 11:53:37;;;;;;;1.15;1.08;;;;;;;;;;5106120;27;20777;-71
2022/07/16 11:56:06;;;;;;;2.85;1.20;;;;;;;;;;5102327;28;20021;-71
2022/07/16 11:58:35;;;;;;;1.67;1.40;;;;;;;;;;5089595;28;20039;-70
2022/07/16 12:01:03;;;;;;;4.88;1.45;;;;;;;;;;5092485;28;20038;-71
2022/07/16 12:03:32;;;;;;;2.47;1.30;;;;;;;;;;5090293;28;20032;-70
2022/07/16 12:06:05;;;;;;;3.80;1.30;;;;;;;;;;5090310;28;20031;-70
2022/07/16 12:08:54;;;;;;;2.22;1.15;;;;;;;;;;5106237;27;20388;-71
2022/07/16 12:11:32;;;;;;;1.70;1.10;;;;;;;;;;5106461;27;20924;-71
2022/07/16 12:14:09;;;;;;;5.30;1.10;;;;;;;;;;5106580;27;20392;-71
2022/07/16 12:16:53;;;;;;;2.08;1.42;;;;;;;;;;5107104;27;20154;-70
2022/07/16 12:19:31;;;;;;;3.65;1.02;;;;;;;;;;5068522;28;20425;-71
2022/07/16 12:21:59;;;;;;;1.40;1.10;;;;;;;;;;5047019;28;20021;-70
2022/07/16 12:24:29;;;;;;;2.65;1.33;;;;;;;;;;5049730;28;20059;-71
2022/07/16 12:27:09;;;;;;;2.50;1.00;;;;;;;;;;5086067;27;20423;-70
2022/07/16 12:29:50;;;;;;;2.85;1.35;;;;;;;;;;5065884;28;20696;-71
2022/07/16 12:32:18;;;;;;;3.15;1.50;;;;;;;;;;5061485;28;20552;-71
2022/07/16 12:34:47;;;;;;;2.92;1.25;;;;;;;;;;5030583;28;20025;-70
2022/07/16 12:37:24;;;;;;;2.97;1.33;;;;;;;;;;5108609;27;20532;-71
2022/07/16 12:40:10;;;;;;;2.80;1.67;;;;;;;;;;5089615;28;20040;-70
2022/07/16 12:42:47;;;;;;;4.03;1.42;;;;;;;;;;5050534;28;20807;-71
2022/07/16 12:45:25;;;;;;;3.13;1.15;;;;;;;;;;5065088;28;20448;-70
2022/07/16 12:47:54;;;;;;;1.33;1.17;;;;;;;;;;5066690;28;20039;-71
2022/07/16 12:50:23;;;;;;;2.38;1.38;;;;;;;;;;5065848;28;20037;-71
2022/07/16 12:52:52;;;;;;;5.22;1.27;;;;;;;;;;5065577;28;20038;-71
2022/07/16 13:01:13;;;;;;;2.55;1.48;;;;;;;;;;5109887;27;20973;-71
2022/07/16 13:03:42;;;;;;;4.60;1.40;;;;;;;;;;5108124;28;20024;-70
2022/07/16 13:06:12;;;;;;;1.40;1.30;;;;;;;;;;5105992;28;20024;-71
2022/07/16 13:08:49;;;;;;;2.47;1.40;;;;;;;;;;5066342;28;20440;-70
2022/07/16 13:11:19;;;;;;;1.30;1.20;;;;;;;;;;5061498;28;20029;-70
2022/07/16 13:13:56;;;;;;;2.10;1.60;;;;;;;;;;5066061;28;20387;-71
2022/07/16 13:16:26;;;;;;;2.45;1.30;;;;;;;;;;5067233;28;20025;-70
2022/07/16 13:19:04;;;;;;;1.45;1.33;;;;;;;;;;5069281;28;20391;-71
2022/07/16 13:21:33;;;;;;;2.50;1.50;;;;;;;;;;5051128;28;20034;-71
2022/07/16 13:24:10;;;;;;;1.90;1.48;;;;;;;;;;5106374;27;20426;-71
2022/07/16 13:26:39;;;;;;;2.10;1.27;;;;;;;;;;5099258;28;20390;-71
2022/07/16 13:29:08;;;;;;;2.58;1.25;;;;;;;;;;5089212;28;20370;-71
2022/07/16 13:31:44;;;;;;;2.90;1.38;;;;;;;;;;5066508;28;20122;-71
2022/07/16 13:34:21;;;;;;;4.38;1.40;;;;;;;;;;5088700;28;20151;-71
2022/07/16 13:36:58;;;;;;;3.63;1.20;;;;;;;;;;5089127;27;20171;-71
2022/07/16 13:39:34;;;;;;;4.47;1.60;;;;;;;;;;5065911;28;20123;-71
2022/07/16 13:42:03;;;;;;;5.20;1.30;;;;;;;;;;5055566;28;20494;-71
2022/07/16 13:44:32;;;;;;;7.97;1.58;;;;;;;;;;5050446;28;20275;-71
2022/07/16 13:47:01;;;;;;;2.03;1.20;;;;;;;;;;5047784;28;20030;-71
2022/07/16 13:49:29;;;;;;;2.08;1.20;;;;;;;;;;5049624;28;20037;-71
2022/07/16 13:52:06;;;;;;;1.40;1.00;;;;;;;;;;5109910;27;20155;-71
2022/07/16 13:54:35;;;;;;;2.60;1.27;;;;;;;;;;5106310;28;20515;-70
2022/07/16 13:59:59;;;;;;;2.35;1.27;;;;;;;;;;5106500;27;20421;-71
2022/07/16 14:02:28;;;;;;;2.17;1.10;;;;;;;;;;5106456;28;20028;-71
2022/07/16 14:05:08;;;;;;;2.28;0.93;;;;;;;;;;5065951;28;20387;-70
2022/07/16 14:07:37;;;;;;;4.67;1.10;;;;;;;;;;5067809;28;20039;-70
2022/07/16 14:10:07;;;;;;;6.60;1.00;;;;;;;;;;5068199;28;20275;-70
2022/07/16 14:12:44;;;;;;;0.93;0.80;;;;;;;;;;5049649;28;20434;-71
2022/07/16 14:15:13;;;;;;;1.88;1.10;;;;;;;;;;5034304;28;20393;-70
2022/07/16 14:17:58;;;;;;;2.20;1.02;;;;;;;;;;5106424;27;20453;-70
2022/07/16 14:20:27;;;;;;;3.08;0.88;;;;;;;;;;5106005;28;20020;-71
2022/07/16 14:23:05;;;;;;;1.48;0.90;;;;;;;;;;5066079;28;20442;-71
2022/07/16 14:25:36;;;;;;;1.85;0.90;;;;;;;;;;5067808;28;20037;-70
2022/07/16 14:28:13;;;;;;;2.58;1.02;;;;;;;;;;5069657;28;20906;-70
2022/07/16 14:30:49;;;;;;;0.85;0.85;;;;;;;;;;5092663;27;20133;-71
2022/07/16 14:33:18;;;;;;;3.50;0.93;;;;;;;;;;5089973;28;20028;-71
2022/07/16 14:35:57;;;;;;;5.65;1.10;;;;;;;;;;5066148;28;20398;-71
2022/07/16 14:38:26;;;;;;;4.43;1.05;;;;;;;;;;5060842;28;20497;-71
2022/07/16 14:40:55;;;;;;;3.65;0.82;;;;;;;;;;5047395;28;20029;-71
2022/07/16 14:43:32;;;;;;;1.48;1.00;;;;;;;;;;5108700;27;20410;-71
2022/07/16 14:46:01;;;;;;;2.15;0.80;;;;;;;;;;5089497;28;20043;-70
2022/07/16 14:48:38;;;;;;;0.77;0.63;;;;;;;;;;5049314;28;20185;-71
2022/07/16 14:51:07;;;;;;;1.15;0.70;;;;;;;;;;5048593;28;20029;-71
2022/07/16 14:53:43;;;;;;;3.47;0.70;;;;;;;;;;5106344;27;20125;-71
2022/07/16 14:56:20;;;;;;;0.95;0.80;;;;;;;;;;5065999;28;20130;-71
2022/07/16 14:58:56;;;;;;;0.80;0.63;;;;;;;;;;5066238;28;20127;-71
2022/07/16 15:01:25;;;;;;;0.50;0.50;;;;;;;;;;5068483;28;20016;-71
2022/07/16 15:04:02;;;;;;;1.38;0.50;;;;;;;;;;5068946;28;20619;-71
2022/07/16 15:06:31;;;;;;;1.40;0.80;;;;;;;;;;5052070;28;20416;-71
2022/07/16 15:09:00;;;;;;;0.65;0.65;;;;;;;;;;5050100;28;20059;-71
2022/07/16 15:11:29;;;;;;;1.65;0.88;;;;;;;;;;5050328;28;20035;-71
2022/07/16 15:13:57;;;;;;;3.80;0.80;;;;;;;;;;5047636;28;20028;-70
2022/07/16 15:16:27;;;;;;;2.70;0.98;;;;;;;;;;5050401;28;20036;-70
2022/07/16 15:19:04;;;;;;;1.50;0.80;;;;;;;;;;5109950;27;20417;-71
2022/07/16 15:21:33;;;;;;;1.63;0.80;;;;;;;;;;5092113;28;20036;-71
2022/07/16 15:24:12;;;;;;;4.38;0.80;;;;;;;;;;5106480;27;20396;-71
2022/07/16 15:26:40;;;;;;;0.70;0.70;;;;;;;;;;5106351;28;20027;-71
2022/07/16 15:29:09;;;;;;;2.50;0.70;;;;;;;;;;5106688;28;20023;-71